sensor_id;sensor_type;location;lat;lon;timestamp;temperature;humidity
45868;DHT22;31582;45.490;7.860;2023-02-15T00:02:26;1.70;99.90
45868;DHT22;31582;45.490;7.860;2023-02-15T00:04:52;1.70;99.90
45868;DHT22;31582;45.490;7.860;2023-02-15T00:07:20;1.70;99.90
45868;DHT22;31582;45.490;7.860;2023-02-15T00:09:47;1.70;99.90
45868;DHT22;31582;45.490;7.860;2023-02-15T00:12:15;1.60;99.90
45868;DHT22;31582;45.490;7.860;2023-02-15T00:14:42;1.60;99.90
45868;DHT22;31582;45.490;7.860;2023-02-15T00:17:09;1.60;99.90
45868;DHT22;31582;45.490;7.860;2023-02-15T00:19:36;1.60;99.90
45868;DHT22;31582;45.490;7.860;2023-02-15T00:22:03;1.60;99.90
45868;DHT22;31582;45.490;7.860;2023-02-15T00:24:30;1.60;99.90
45868;DHT22;31582;45.490;7.860;2023-02-15T00:26:57;1.60;99.90
45868;DHT22;31582;45.490;7.860;2023-02-15T00:29:24;1.50;99.90
45868;DHT22;31582;45.490;7.860;2023-02-15T00:31:51;1.40;99.90
45868;DHT22;31582;45.490;7.860;2023-02-15T00:34:24;1.20;99.90
45868;DHT22;31582;45.490;7.860;2023-02-15T00:36:52;1.20;99.90
45868;DHT22;31582;45.490;7.860;2023-02-15T00:39:19;1.20;99.90
45868;DHT22;31582;45.490;7.860;2023-02-15T00:41:46;1.30;99.90
45868;DHT22;31582;45.490;7.860;2023-02-15T00:44:14;1.20;99.90
45868;DHT22;31582;45.490;7.860;2023-02-15T00:46:42;1.10;99.90
45868;DHT22;31582;45.490;7.860;2023-02-15T00:49:09;1.20;99.90
45868;DHT22;31582;45.490;7.860;2023-02-15T00:51:36;1.10;99.90
45868;DHT22;31582;45.490;7.860;2023-02-15T00:54:03;1.10;99.90
45868;DHT22;31582;45.490;7.860;2023-02-15T00:56:30;1.10;99.90
45868;DHT22;31582;45.490;7.860;2023-02-15T00:58:57;1.20;99.90
45868;DHT22;31582;45.490;7.860;2023-02-15T01:01:24;1.10;99.90
45868;DHT22;31582;45.490;7.860;2023-02-15T01:03:52;1.10;99.90
45868;DHT22;31582;45.490;7.860;2023-02-15T01:06:19;1.10;99.90
45868;DHT22;31582;45.490;7.860;2023-02-15T01:08:47;1.10;99.90
45868;DHT22;31582;45.490;7.860;2023-02-15T01:11:16;1.10;99.90
45868;DHT22;31582;45.490;7.860;2023-02-15T01:13:51;1.10;99.90
45868;DHT22;31582;45.490;7.860;2023-02-15T01:16:18;1.10;99.90
45868;DHT22;31582;45.490;7.860;2023-02-15T01:18:45;1.10;99.90
45868;DHT22;31582;45.490;7.860;2023-02-15T01:21:21;1.10;99.90
45868;DHT22;31582;45.490;7.860;2023-02-15T01:23:49;1.10;99.90
45868;DHT22;31582;45.490;7.860;2023-02-15T01:26:17;1.00;99.90
45868;DHT22;31582;45.490;7.860;2023-02-15T01:28:44;1.00;99.90
45868;DHT22;31582;45.490;7.860;2023-02-15T01:31:17;0.90;99.90
45868;DHT22;31582;45.490;7.860;2023-02-15T01:33:45;1.00;99.90
45868;DHT22;31582;45.490;7.860;2023-02-15T01:36:12;0.90;99.90
45868;DHT22;31582;45.490;7.860;2023-02-15T01:38:40;0.90;99.90
45868;DHT22;31582;45.490;7.860;2023-02-15T01:41:07;0.80;99.90
45868;DHT22;31582;45.490;7.860;2023-02-15T01:43:56;0.90;99.90
45868;DHT22;31582;45.490;7.860;2023-02-15T01:46:45;0.80;99.90
45868;DHT22;31582;45.490;7.860;2023-02-15T01:49:19;0.90;99.90
45868;DHT22;31582;45.490;7.860;2023-02-15T01:51:49;0.80;99.90
45868;DHT22;31582;45.490;7.860;2023-02-15T01:54:27;0.80;99.90
45868;DHT22;31582;45.490;7.860;2023-02-15T01:56:59;0.80;99.90
45868;DHT22;31582;45.490;7.860;2023-02-15T01:59:28;0.70;99.90
45868;DHT22;31582;45.490;7.860;2023-02-15T02:01:58;0.70;99.90
45868;DHT22;31582;45.490;7.860;2023-02-15T02:07:24;0.60;99.90
45868;DHT22;31582;45.490;7.860;2023-02-15T02:09:53;0.60;99.90
45868;DHT22;31582;45.490;7.860;2023-02-15T02:12:21;0.70;99.90
45868;DHT22;31582;45.490;7.860;2023-02-15T02:14:51;0.80;99.90
45868;DHT22;31582;45.490;7.860;2023-02-15T02:33:59;0.50;99.90
45868;DHT22;31582;45.490;7.860;2023-02-15T02:36:42;0.40;99.90
45868;DHT22;31582;45.490;7.860;2023-02-15T02:45:32;0.20;99.90
45868;DHT22;31582;45.490;7.860;2023-02-15T02:48:07;0.20;99.90
45868;DHT22;31582;45.490;7.860;2023-02-15T02:50:34;0.20;99.90
45868;DHT22;31582;45.490;7.860;2023-02-15T02:53:01;0.30;99.90
45868;DHT22;31582;45.490;7.860;2023-02-15T02:58:41;0.40;99.90
45868;DHT22;31582;45.490;7.860;2023-02-15T03:01:22;0.40;99.90
45868;DHT22;31582;45.490;7.860;2023-02-15T03:03:55;0.50;99.90
45868;DHT22;31582;45.490;7.860;2023-02-15T03:06:31;0.50;99.90
45868;DHT22;31582;45.490;7.860;2023-02-15T03:09:27;0.50;99.90
45868;DHT22;31582;45.490;7.860;2023-02-15T03:12:16;0.40;99.90
45868;DHT22;31582;45.490;7.860;2023-02-15T03:14:48;0.20;99.90
45868;DHT22;31582;45.490;7.860;2023-02-15T03:17:16;0.30;99.90
45868;DHT22;31582;45.490;7.860;2023-02-15T03:19:45;0.20;99.90
45868;DHT22;31582;45.490;7.860;2023-02-15T03:22:30;0.20;99.90
45868;DHT22;31582;45.490;7.860;2023-02-15T03:25:08;0.10;99.90
45868;DHT22;31582;45.490;7.860;2023-02-15T03:27:42;0.00;99.90
45868;DHT22;31582;45.490;7.860;2023-02-15T03:30:12;-0.10;99.90
45868;DHT22;31582;45.490;7.860;2023-02-15T03:32:41;0.00;99.90
45868;DHT22;31582;45.490;7.860;2023-02-15T03:35:09;0.00;99.90
45868;DHT22;31582;45.490;7.860;2023-02-15T03:37:41;0.00;99.90
45868;DHT22;31582;45.490;7.860;2023-02-15T03:40:18;0.00;99.90
45868;DHT22;31582;45.490;7.860;2023-02-15T03:43:22;0.10;99.90
45868;DHT22;31582;45.490;7.860;2023-02-15T03:45:55;0.10;99.90
45868;DHT22;31582;45.490;7.860;2023-02-15T03:48:33;0.00;99.90
45868;DHT22;31582;45.490;7.860;2023-02-15T03:51:08;-0.10;99.90
45868;DHT22;31582;45.490;7.860;2023-02-15T03:53:56;-0.10;99.90
45868;DHT22;31582;45.490;7.860;2023-02-15T03:56:24;0.00;99.90
45868;DHT22;31582;45.490;7.860;2023-02-15T03:58:51;0.10;99.90
45868;DHT22;31582;45.490;7.860;2023-02-15T04:02:10;0.10;99.90
45868;DHT22;31582;45.490;7.860;2023-02-15T04:04:36;0.10;99.90
45868;DHT22;31582;45.490;7.860;2023-02-15T04:07:06;0.00;99.90
45868;DHT22;31582;45.490;7.860;2023-02-15T04:09:33;-0.10;99.90
45868;DHT22;31582;45.490;7.860;2023-02-15T04:12:19;-0.10;99.90
45868;DHT22;31582;45.490;7.860;2023-02-15T04:14:46;-0.20;99.90
45868;DHT22;31582;45.490;7.860;2023-02-15T04:17:31;-0.10;99.90
45868;DHT22;31582;45.490;7.860;2023-02-15T04:19:58;-0.10;99.90
45868;DHT22;31582;45.490;7.860;2023-02-15T04:22:44;0.00;99.90
45868;DHT22;31582;45.490;7.860;2023-02-15T04:25:29;-0.10;99.90
45868;DHT22;31582;45.490;7.860;2023-02-15T04:27:56;-0.20;99.90
45868;DHT22;31582;45.490;7.860;2023-02-15T04:30:24;-0.30;99.90
45868;DHT22;31582;45.490;7.860;2023-02-15T04:32:52;-0.30;99.90
45868;DHT22;31582;45.490;7.860;2023-02-15T04:35:20;-0.40;99.90
45868;DHT22;31582;45.490;7.860;2023-02-15T04:37:47;-0.40;99.90
45868;DHT22;31582;45.490;7.860;2023-02-15T04:40:15;-0.30;99.90
45868;DHT22;31582;45.490;7.860;2023-02-15T04:42:47;-0.30;99.90
45868;DHT22;31582;45.490;7.860;2023-02-15T04:45:16;-0.20;99.90
45868;DHT22;31582;45.490;7.860;2023-02-15T04:47:43;-0.20;99.90
45868;DHT22;31582;45.490;7.860;2023-02-15T04:50:10;-0.10;99.90
45868;DHT22;31582;45.490;7.860;2023-02-15T04:52:38;-0.20;99.90
45868;DHT22;31582;45.490;7.860;2023-02-15T04:55:05;-0.20;99.90
45868;DHT22;31582;45.490;7.860;2023-02-15T04:57:32;-0.40;99.90
45868;DHT22;31582;45.490;7.860;2023-02-15T04:59:59;-0.50;99.90
45868;DHT22;31582;45.490;7.860;2023-02-15T05:02:26;-0.50;99.90
45868;DHT22;31582;45.490;7.860;2023-02-15T05:04:53;-0.70;99.90
45868;DHT22;31582;45.490;7.860;2023-02-15T05:07:20;-0.60;99.90
45868;DHT22;31582;45.490;7.860;2023-02-15T05:09:47;-0.50;99.90
45868;DHT22;31582;45.490;7.860;2023-02-15T05:12:14;-0.30;99.90
45868;DHT22;31582;45.490;7.860;2023-02-15T05:14:41;-0.30;99.90
45868;DHT22;31582;45.490;7.860;2023-02-15T05:17:08;-0.20;99.90
45868;DHT22;31582;45.490;7.860;2023-02-15T05:19:35;-0.20;99.90
45868;DHT22;31582;45.490;7.860;2023-02-15T05:22:02;-0.20;99.90
45868;DHT22;31582;45.490;7.860;2023-02-15T05:24:29;-0.30;99.90
45868;DHT22;31582;45.490;7.860;2023-02-15T05:27:14;-0.20;99.90
45868;DHT22;31582;45.490;7.860;2023-02-15T05:30:00;-0.30;99.90
45868;DHT22;31582;45.490;7.860;2023-02-15T05:32:27;-0.30;99.90
45868;DHT22;31582;45.490;7.860;2023-02-15T05:34:54;-0.40;99.90
45868;DHT22;31582;45.490;7.860;2023-02-15T05:37:21;-0.60;99.90
45868;DHT22;31582;45.490;7.860;2023-02-15T05:39:48;-0.60;99.90
45868;DHT22;31582;45.490;7.860;2023-02-15T05:42:15;-0.50;99.90
45868;DHT22;31582;45.490;7.860;2023-02-15T05:44:42;-0.50;99.90
45868;DHT22;31582;45.490;7.860;2023-02-15T05:47:09;-0.40;99.90
45868;DHT22;31582;45.490;7.860;2023-02-15T05:49:36;-0.20;99.90
45868;DHT22;31582;45.490;7.860;2023-02-15T05:52:03;-0.10;99.90
45868;DHT22;31582;45.490;7.860;2023-02-15T05:54:30;0.00;99.90
45868;DHT22;31582;45.490;7.860;2023-02-15T05:56:57;0.00;99.90
45868;DHT22;31582;45.490;7.860;2023-02-15T05:59:24;0.00;99.90
45868;DHT22;31582;45.490;7.860;2023-02-15T06:01:51;-0.20;99.90
45868;DHT22;31582;45.490;7.860;2023-02-15T06:04:18;-0.50;99.90
45868;DHT22;31582;45.490;7.860;2023-02-15T06:06:46;-0.50;99.90
45868;DHT22;31582;45.490;7.860;2023-02-15T06:09:13;-0.70;99.90
45868;DHT22;31582;45.490;7.860;2023-02-15T06:11:40;-0.80;99.90
45868;DHT22;31582;45.490;7.860;2023-02-15T06:14:07;-0.80;99.90
45868;DHT22;31582;45.490;7.860;2023-02-15T06:16:34;-0.80;99.90
45868;DHT22;31582;45.490;7.860;2023-02-15T06:19:01;-0.80;99.90
45868;DHT22;31582;45.490;7.860;2023-02-15T06:21:29;-0.70;99.90
45868;DHT22;31582;45.490;7.860;2023-02-15T06:23:56;-0.70;99.90
45868;DHT22;31582;45.490;7.860;2023-02-15T06:26:24;-0.70;99.90
45868;DHT22;31582;45.490;7.860;2023-02-15T06:28:51;-0.60;99.90
45868;DHT22;31582;45.490;7.860;2023-02-15T06:31:17;-0.50;99.90
45868;DHT22;31582;45.490;7.860;2023-02-15T06:33:45;-0.60;99.90
45868;DHT22;31582;45.490;7.860;2023-02-15T06:36:12;-0.60;99.90
45868;DHT22;31582;45.490;7.860;2023-02-15T06:38:39;-0.70;99.90
45868;DHT22;31582;45.490;7.860;2023-02-15T06:41:06;-0.70;99.90
45868;DHT22;31582;45.490;7.860;2023-02-15T06:43:33;-0.60;99.90
45868;DHT22;31582;45.490;7.860;2023-02-15T06:46:00;-0.60;99.90
45868;DHT22;31582;45.490;7.860;2023-02-15T06:48:28;-0.50;99.90
45868;DHT22;31582;45.490;7.860;2023-02-15T06:50:56;-0.40;99.90
45868;DHT22;31582;45.490;7.860;2023-02-15T06:53:23;-0.40;99.90
45868;DHT22;31582;45.490;7.860;2023-02-15T06:55:50;-0.30;99.90
45868;DHT22;31582;45.490;7.860;2023-02-15T06:58:17;-0.30;99.90
45868;DHT22;31582;45.490;7.860;2023-02-15T07:00:44;-0.50;99.90
45868;DHT22;31582;45.490;7.860;2023-02-15T07:03:13;-0.50;99.90
45868;DHT22;31582;45.490;7.860;2023-02-15T07:05:41;-0.50;99.90
45868;DHT22;31582;45.490;7.860;2023-02-15T07:08:08;-0.50;99.90
45868;DHT22;31582;45.490;7.860;2023-02-15T07:10:35;-0.50;99.90
45868;DHT22;31582;45.490;7.860;2023-02-15T07:13:02;-0.50;99.90
45868;DHT22;31582;45.490;7.860;2023-02-15T07:15:29;-0.40;99.90
45868;DHT22;31582;45.490;7.860;2023-02-15T07:17:57;-0.40;99.90
45868;DHT22;31582;45.490;7.860;2023-02-15T07:20:25;-0.30;99.90
45868;DHT22;31582;45.490;7.860;2023-02-15T07:22:52;-0.20;99.90
45868;DHT22;31582;45.490;7.860;2023-02-15T07:25:19;-0.10;99.90
45868;DHT22;31582;45.490;7.860;2023-02-15T07:27:46;0.00;99.90
45868;DHT22;31582;45.490;7.860;2023-02-15T07:30:16;0.10;99.90
45868;DHT22;31582;45.490;7.860;2023-02-15T07:32:43;0.30;99.90
45868;DHT22;31582;45.490;7.860;2023-02-15T07:35:31;0.50;99.90
45868;DHT22;31582;45.490;7.860;2023-02-15T07:37:59;0.70;99.90
45868;DHT22;31582;45.490;7.860;2023-02-15T07:40:26;0.90;99.90
45868;DHT22;31582;45.490;7.860;2023-02-15T07:42:53;1.10;99.90
45868;DHT22;31582;45.490;7.860;2023-02-15T07:45:24;1.40;99.90
45868;DHT22;31582;45.490;7.860;2023-02-15T07:47:51;1.70;99.90
45868;DHT22;31582;45.490;7.860;2023-02-15T07:50:18;2.10;99.90
45868;DHT22;31582;45.490;7.860;2023-02-15T07:52:45;2.50;99.90
45868;DHT22;31582;45.490;7.860;2023-02-15T07:55:12;2.80;99.90
45868;DHT22;31582;45.490;7.860;2023-02-15T07:57:45;3.20;99.90
45868;DHT22;31582;45.490;7.860;2023-02-15T08:00:13;3.80;96.10
45868;DHT22;31582;45.490;7.860;2023-02-15T08:02:41;4.00;96.20
45868;DHT22;31582;45.490;7.860;2023-02-15T08:05:08;4.40;95.80
45868;DHT22;31582;45.490;7.860;2023-02-15T08:07:35;4.60;95.40
45868;DHT22;31582;45.490;7.860;2023-02-15T08:10:02;4.80;97.70
45868;DHT22;31582;45.490;7.860;2023-02-15T08:12:30;5.00;97.50
45868;DHT22;31582;45.490;7.860;2023-02-15T08:14:56;5.30;97.60
45868;DHT22;31582;45.490;7.860;2023-02-15T08:17:24;5.60;96.20
45868;DHT22;31582;45.490;7.860;2023-02-15T08:19:51;5.90;95.40
45868;DHT22;31582;45.490;7.860;2023-02-15T08:22:18;6.10;94.10
45868;DHT22;31582;45.490;7.860;2023-02-15T08:24:45;6.40;90.70
45868;DHT22;31582;45.490;7.860;2023-02-15T08:27:13;6.70;91.00
45868;DHT22;31582;45.490;7.860;2023-02-15T08:29:39;7.00;87.40
45868;DHT22;31582;45.490;7.860;2023-02-15T08:32:10;7.30;83.80
45868;DHT22;31582;45.490;7.860;2023-02-15T08:34:40;7.60;81.10
45868;DHT22;31582;45.490;7.860;2023-02-15T08:37:07;7.90;74.90
45868;DHT22;31582;45.490;7.860;2023-02-15T08:39:34;8.10;72.20
45868;DHT22;31582;45.490;7.860;2023-02-15T08:42:02;8.30;71.40
45868;DHT22;31582;45.490;7.860;2023-02-15T08:44:29;8.40;68.30
45868;DHT22;31582;45.490;7.860;2023-02-15T08:46:56;8.70;67.40
45868;DHT22;31582;45.490;7.860;2023-02-15T08:49:29;9.00;63.80
45868;DHT22;31582;45.490;7.860;2023-02-15T08:51:56;9.30;60.10
45868;DHT22;31582;45.490;7.860;2023-02-15T08:54:24;9.60;59.40
45868;DHT22;31582;45.490;7.860;2023-02-15T08:56:52;9.90;57.30
45868;DHT22;31582;45.490;7.860;2023-02-15T08:59:21;10.10;58.30
45868;DHT22;31582;45.490;7.860;2023-02-15T09:01:51;10.30;57.20
45868;DHT22;31582;45.490;7.860;2023-02-15T09:04:18;10.30;56.20
45868;DHT22;31582;45.490;7.860;2023-02-15T09:06:47;10.40;56.80
45868;DHT22;31582;45.490;7.860;2023-02-15T09:09:16;10.50;57.30
45868;DHT22;31582;45.490;7.860;2023-02-15T09:11:45;10.70;55.80
45868;DHT22;31582;45.490;7.860;2023-02-15T09:14:18;10.70;55.10
45868;DHT22;31582;45.490;7.860;2023-02-15T09:16:47;11.00;56.00
45868;DHT22;31582;45.490;7.860;2023-02-15T09:19:17;11.00;54.10
45868;DHT22;31582;45.490;7.860;2023-02-15T09:21:45;11.20;54.30
45868;DHT22;31582;45.490;7.860;2023-02-15T09:24:13;11.30;54.60
45868;DHT22;31582;45.490;7.860;2023-02-15T09:26:45;11.40;52.00
45868;DHT22;31582;45.490;7.860;2023-02-15T09:29:14;11.60;51.30
45868;DHT22;31582;45.490;7.860;2023-02-15T09:31:48;11.70;51.20
45868;DHT22;31582;45.490;7.860;2023-02-15T09:34:18;11.90;51.60
45868;DHT22;31582;45.490;7.860;2023-02-15T09:36:46;12.00;50.40
45868;DHT22;31582;45.490;7.860;2023-02-15T09:39:16;12.20;49.30
45868;DHT22;31582;45.490;7.860;2023-02-15T09:55:24;12.70;44.80
45868;DHT22;31582;45.490;7.860;2023-02-15T09:58:23;12.90;44.90
45868;DHT22;31582;45.490;7.860;2023-02-15T10:06:41;13.50;43.00
45868;DHT22;31582;45.490;7.860;2023-02-15T10:09:46;13.70;44.10
45868;DHT22;31582;45.490;7.860;2023-02-15T10:15:08;14.00;42.30
45868;DHT22;31582;45.490;7.860;2023-02-15T10:26:41;14.40;40.10
45868;DHT22;31582;45.490;7.860;2023-02-15T10:29:28;14.50;41.00
45868;DHT22;31582;45.490;7.860;2023-02-15T10:35:01;14.70;40.80
45868;DHT22;31582;45.490;7.860;2023-02-15T10:38:29;14.90;40.10
45868;DHT22;31582;45.490;7.860;2023-02-15T10:44:06;15.20;39.40
45868;DHT22;31582;45.490;7.860;2023-02-15T10:52:18;15.40;37.70
45868;DHT22;31582;45.490;7.860;2023-02-15T10:55:17;15.30;36.90
45868;DHT22;31582;45.490;7.860;2023-02-15T10:58:00;15.50;38.90
45868;DHT22;31582;45.490;7.860;2023-02-15T11:00:44;15.50;39.20
45868;DHT22;31582;45.490;7.860;2023-02-15T11:03:35;15.40;38.30
45868;DHT22;31582;45.490;7.860;2023-02-15T11:06:05;15.20;38.60
45868;DHT22;31582;45.490;7.860;2023-02-15T11:08:37;15.30;40.40
45868;DHT22;31582;45.490;7.860;2023-02-15T11:11:51;15.40;41.30
45868;DHT22;31582;45.490;7.860;2023-02-15T11:14:02;15.60;40.20
45868;DHT22;31582;45.490;7.860;2023-02-15T11:16:38;15.70;38.20
45868;DHT22;31582;45.490;7.860;2023-02-15T11:19:24;15.90;38.60
45868;DHT22;31582;45.490;7.860;2023-02-15T11:21:57;16.10;39.20
45868;DHT22;31582;45.490;7.860;2023-02-15T11:24:28;15.80;37.20
45868;DHT22;31582;45.490;7.860;2023-02-15T11:27:04;15.90;39.50
45868;DHT22;31582;45.490;7.860;2023-02-15T11:29:36;16.10;39.00
45868;DHT22;31582;45.490;7.860;2023-02-15T11:32:40;16.20;38.10
45868;DHT22;31582;45.490;7.860;2023-02-15T11:35:32;16.30;38.40
45868;DHT22;31582;45.490;7.860;2023-02-15T11:38:27;16.60;38.00
45868;DHT22;31582;45.490;7.860;2023-02-15T11:41:03;16.70;36.80
45868;DHT22;31582;45.490;7.860;2023-02-15T11:43:42;16.80;36.30
45868;DHT22;31582;45.490;7.860;2023-02-15T11:46:11;17.00;36.20
45868;DHT22;31582;45.490;7.860;2023-02-15T11:48:41;17.20;35.60
45868;DHT22;31582;45.490;7.860;2023-02-15T11:51:15;17.20;35.20
45868;DHT22;31582;45.490;7.860;2023-02-15T11:53:43;17.10;34.90
45868;DHT22;31582;45.490;7.860;2023-02-15T11:56:18;17.00;34.90
45868;DHT22;31582;45.490;7.860;2023-02-15T11:58:50;17.10;35.30
45868;DHT22;31582;45.490;7.860;2023-02-15T12:01:37;17.40;35.40
45868;DHT22;31582;45.490;7.860;2023-02-15T12:04:30;17.50;34.40
45868;DHT22;31582;45.490;7.860;2023-02-15T12:07:09;17.40;34.20
45868;DHT22;31582;45.490;7.860;2023-02-15T12:10:00;17.60;34.40
45868;DHT22;31582;45.490;7.860;2023-02-15T12:12:38;17.50;32.80
45868;DHT22;31582;45.490;7.860;2023-02-15T12:15:09;17.20;33.50
45868;DHT22;31582;45.490;7.860;2023-02-15T12:17:51;17.30;34.60
45868;DHT22;31582;45.490;7.860;2023-02-15T12:22:58;17.50;34.70
45868;DHT22;31582;45.490;7.860;2023-02-15T12:25:51;17.60;34.10
45868;DHT22;31582;45.490;7.860;2023-02-15T12:28:33;17.90;35.60
45868;DHT22;31582;45.490;7.860;2023-02-15T12:33:47;17.80;32.40
45868;DHT22;31582;45.490;7.860;2023-02-15T12:36:20;18.10;33.70
45868;DHT22;31582;45.490;7.860;2023-02-15T12:41:34;18.30;33.90
45868;DHT22;31582;45.490;7.860;2023-02-15T12:44:16;18.40;34.30
45868;DHT22;31582;45.490;7.860;2023-02-15T12:49:26;18.70;33.90
45868;DHT22;31582;45.490;7.860;2023-02-15T12:51:59;18.10;33.10
45868;DHT22;31582;45.490;7.860;2023-02-15T12:54:30;18.30;34.20
45868;DHT22;31582;45.490;7.860;2023-02-15T12:56:58;18.10;32.90
45868;DHT22;31582;45.490;7.860;2023-02-15T12:59:25;17.90;33.70
45868;DHT22;31582;45.490;7.860;2023-02-15T13:01:53;18.10;33.40
45868;DHT22;31582;45.490;7.860;2023-02-15T13:04:28;18.30;33.90
45868;DHT22;31582;45.490;7.860;2023-02-15T13:06:58;18.10;33.70
45868;DHT22;31582;45.490;7.860;2023-02-15T13:09:37;18.00;33.60
45868;DHT22;31582;45.490;7.860;2023-02-15T13:14:44;18.70;34.70
45868;DHT22;31582;45.490;7.860;2023-02-15T13:17:13;19.20;33.20
45868;DHT22;31582;45.490;7.860;2023-02-15T13:19:49;19.20;32.20
45868;DHT22;31582;45.490;7.860;2023-02-15T13:22:27;18.80;32.20
45868;DHT22;31582;45.490;7.860;2023-02-15T13:25:10;18.80;32.50
45868;DHT22;31582;45.490;7.860;2023-02-15T13:27:41;18.60;33.30
45868;DHT22;31582;45.490;7.860;2023-02-15T13:30:26;18.80;32.90
45868;DHT22;31582;45.490;7.860;2023-02-15T13:32:59;18.80;32.50
45868;DHT22;31582;45.490;7.860;2023-02-15T13:35:36;18.50;32.80
45868;DHT22;31582;45.490;7.860;2023-02-15T13:38:15;18.80;33.60
45868;DHT22;31582;45.490;7.860;2023-02-15T13:40:59;19.00;33.00
45868;DHT22;31582;45.490;7.860;2023-02-15T13:44:04;19.10;32.30
45868;DHT22;31582;45.490;7.860;2023-02-15T13:46:52;19.10;32.80
45868;DHT22;31582;45.490;7.860;2023-02-15T13:52:26;19.50;32.00
45868;DHT22;31582;45.490;7.860;2023-02-15T14:00:47;20.10;31.40
45868;DHT22;31582;45.490;7.860;2023-02-15T14:08:57;19.50;32.60
45868;DHT22;31582;45.490;7.860;2023-02-15T14:15:08;19.30;33.20
45868;DHT22;31582;45.490;7.860;2023-02-15T14:23:35;19.40;33.30
45868;DHT22;31582;45.490;7.860;2023-02-15T14:26:26;19.00;33.00
45868;DHT22;31582;45.490;7.860;2023-02-15T14:29:51;19.20;33.40
45868;DHT22;31582;45.490;7.860;2023-02-15T14:32:21;19.10;32.90
45868;DHT22;31582;45.490;7.860;2023-02-15T14:34:59;19.30;33.20
45868;DHT22;31582;45.490;7.860;2023-02-15T14:37:42;19.20;33.30
45868;DHT22;31582;45.490;7.860;2023-02-15T14:43:23;18.70;33.90
45868;DHT22;31582;45.490;7.860;2023-02-15T14:49:03;18.70;33.10
45868;DHT22;31582;45.490;7.860;2023-02-15T15:02:26;18.60;33.10
45868;DHT22;31582;45.490;7.860;2023-02-15T15:04:58;18.60;33.40
45868;DHT22;31582;45.490;7.860;2023-02-15T15:07:28;18.70;33.30
45868;DHT22;31582;45.490;7.860;2023-02-15T15:12:48;18.70;33.60
45868;DHT22;31582;45.490;7.860;2023-02-15T15:18:08;18.50;33.50
45868;DHT22;31582;45.490;7.860;2023-02-15T15:20:50;18.40;33.70
45868;DHT22;31582;45.490;7.860;2023-02-15T15:25:49;18.20;33.70
45868;DHT22;31582;45.490;7.860;2023-02-15T15:42:49;18.00;33.80
45868;DHT22;31582;45.490;7.860;2023-02-15T15:48:34;17.70;35.10
45868;DHT22;31582;45.490;7.860;2023-02-15T15:51:19;17.60;34.80
45868;DHT22;31582;45.490;7.860;2023-02-15T15:53:50;17.70;35.50
45868;DHT22;31582;45.490;7.860;2023-02-15T15:56:25;17.60;35.00
45868;DHT22;31582;45.490;7.860;2023-02-15T15:59:01;17.60;35.50
45868;DHT22;31582;45.490;7.860;2023-02-15T16:01:39;17.70;35.30
45868;DHT22;31582;45.490;7.860;2023-02-15T16:07:20;17.60;35.30
45868;DHT22;31582;45.490;7.860;2023-02-15T16:09:59;17.70;35.90
45868;DHT22;31582;45.490;7.860;2023-02-15T16:12:32;17.50;35.40
45868;DHT22;31582;45.490;7.860;2023-02-15T16:15:29;17.40;35.50
45868;DHT22;31582;45.490;7.860;2023-02-15T16:18:00;17.20;35.90
45868;DHT22;31582;45.490;7.860;2023-02-15T16:20:36;17.00;36.40
45868;DHT22;31582;45.490;7.860;2023-02-15T16:23:21;16.90;36.90
45868;DHT22;31582;45.490;7.860;2023-02-15T16:28:48;16.60;38.60
45868;DHT22;31582;45.490;7.860;2023-02-15T16:31:17;16.40;39.60
45868;DHT22;31582;45.490;7.860;2023-02-15T16:33:47;16.30;40.20
45868;DHT22;31582;45.490;7.860;2023-02-15T16:36:28;16.10;40.40
45868;DHT22;31582;45.490;7.860;2023-02-15T16:41:24;15.80;41.10
45868;DHT22;31582;45.490;7.860;2023-02-15T16:43:53;15.60;41.00
45868;DHT22;31582;45.490;7.860;2023-02-15T16:46:40;15.40;41.70
45868;DHT22;31582;45.490;7.860;2023-02-15T16:49:20;15.30;41.90
45868;DHT22;31582;45.490;7.860;2023-02-15T16:51:56;15.20;41.40
45868;DHT22;31582;45.490;7.860;2023-02-15T16:54:25;15.10;41.90
45868;DHT22;31582;45.490;7.860;2023-02-15T16:56:53;14.90;42.20
45868;DHT22;31582;45.490;7.860;2023-02-15T16:59:35;14.60;42.70
45868;DHT22;31582;45.490;7.860;2023-02-15T17:02:23;14.30;43.70
45868;DHT22;31582;45.490;7.860;2023-02-15T17:07:40;13.60;45.70
45868;DHT22;31582;45.490;7.860;2023-02-15T17:13:01;13.30;46.70
45868;DHT22;31582;45.490;7.860;2023-02-15T17:18:23;13.00;47.80
45868;DHT22;31582;45.490;7.860;2023-02-15T17:20:52;12.70;48.30
45868;DHT22;31582;45.490;7.860;2023-02-15T17:23:26;12.50;49.10
45868;DHT22;31582;45.490;7.860;2023-02-15T17:25:56;12.20;49.80
45868;DHT22;31582;45.490;7.860;2023-02-15T17:28:30;12.00;50.80
45868;DHT22;31582;45.490;7.860;2023-02-15T17:31:06;11.90;50.80
45868;DHT22;31582;45.490;7.860;2023-02-15T17:33:37;11.80;51.40
45868;DHT22;31582;45.490;7.860;2023-02-15T17:39:06;11.70;51.40
45868;DHT22;31582;45.490;7.860;2023-02-15T17:41:44;11.60;51.50
45868;DHT22;31582;45.490;7.860;2023-02-15T17:44:14;11.40;52.00
45868;DHT22;31582;45.490;7.860;2023-02-15T17:46:42;11.10;53.10
45868;DHT22;31582;45.490;7.860;2023-02-15T17:49:23;11.00;53.50
45868;DHT22;31582;45.490;7.860;2023-02-15T17:51:51;10.90;53.90
45868;DHT22;31582;45.490;7.860;2023-02-15T17:54:18;10.90;54.00
45868;DHT22;31582;45.490;7.860;2023-02-15T17:57:12;10.80;53.30
45868;DHT22;31582;45.490;7.860;2023-02-15T17:59:40;10.70;52.90
45868;DHT22;31582;45.490;7.860;2023-02-15T18:02:32;10.50;53.40
45868;DHT22;31582;45.490;7.860;2023-02-15T18:05:23;10.40;53.40
45868;DHT22;31582;45.490;7.860;2023-02-15T18:08:17;10.30;53.70
45868;DHT22;31582;45.490;7.860;2023-02-15T18:11:03;10.10;55.20
45868;DHT22;31582;45.490;7.860;2023-02-15T18:13:49;9.80;57.00
45868;DHT22;31582;45.490;7.860;2023-02-15T18:16:21;9.70;57.20
45868;DHT22;31582;45.490;7.860;2023-02-15T18:18:48;9.60;57.60
45868;DHT22;31582;45.490;7.860;2023-02-15T18:21:16;9.50;57.70
45868;DHT22;31582;45.490;7.860;2023-02-15T18:23:44;9.50;57.70
45868;DHT22;31582;45.490;7.860;2023-02-15T18:26:23;9.40;57.90
45868;DHT22;31582;45.490;7.860;2023-02-15T18:28:50;9.40;57.50
45868;DHT22;31582;45.490;7.860;2023-02-15T18:31:19;9.30;57.80
45868;DHT22;31582;45.490;7.860;2023-02-15T18:33:55;9.20;58.50
45868;DHT22;31582;45.490;7.860;2023-02-15T18:36:27;9.10;60.00
45868;DHT22;31582;45.490;7.860;2023-02-15T18:38:55;9.00;60.00
45868;DHT22;31582;45.490;7.860;2023-02-15T18:41:29;8.90;59.90
45868;DHT22;31582;45.490;7.860;2023-02-15T19:17:08;7.80;64.20
45868;DHT22;31582;45.490;7.860;2023-02-15T19:19:44;7.70;64.50
45868;DHT22;31582;45.490;7.860;2023-02-15T19:22:20;7.60;66.80
45868;DHT22;31582;45.490;7.860;2023-02-15T19:41:05;6.90;72.30
45868;DHT22;31582;45.490;7.860;2023-02-15T19:43:33;6.80;71.60
45868;DHT22;31582;45.490;7.860;2023-02-15T20:46:01;5.30;83.80
45868;DHT22;31582;45.490;7.860;2023-02-15T22:19:48;3.90;93.50
45868;DHT22;31582;45.490;7.860;2023-02-15T22:22:15;3.80;93.40
45868;DHT22;31582;45.490;7.860;2023-02-15T22:24:44;3.80;94.20
45868;DHT22;31582;45.490;7.860;2023-02-15T22:27:26;3.80;94.60